Time;durP1;ratioP1;P1;durP2;ratioP2;P2;SDS_P1;SDS_P2;PMS_P1;PMS_P2;Temp;Humidity;BMP_temperature;BMP_pressure;BME280_temperature;BME280_humidity;BME280_pressure;Samples;Min_cycle;Max_cycle;Signal;HPM_P1;HPM_P2
2022/06/22 00:01:38;;;;;;;18.58;10.00;;;11.40;99.90;;;;;;5010728;28;20061;-70
2022/06/22 00:04:07;;;;;;;14.17;9.17;;;11.40;99.90;;;;;;5011306;28;20103;-71
2022/06/22 00:06:37;;;;;;;14.77;9.75;;;11.40;99.90;;;;;;5011432;28;20308;-71
2022/06/22 00:09:07;;;;;;;14.50;10.23;;;11.40;99.90;;;;;;5012026;28;20414;-70
2022/06/22 00:11:36;;;;;;;16.42;10.18;;;11.30;99.90;;;;;;5010658;28;20057;-70
2022/06/22 00:14:03;;;;;;;15.85;10.23;;;11.30;99.90;;;;;;5009309;28;20164;-70
2022/06/22 00:16:34;;;;;;;17.00;10.30;;;11.30;99.90;;;;;;5011968;28;20050;-70
2022/06/22 00:19:01;;;;;;;14.13;11.15;;;11.30;99.90;;;;;;5011092;28;20066;-70
2022/06/22 00:21:32;;;;;;;17.00;10.70;;;11.30;99.90;;;;;;5010892;28;20058;-69
2022/06/22 00:24:00;;;;;;;;;;;11.20;99.90;;;;;;5044317;28;20058;-70
2022/06/22 00:26:33;;;;;;;16.98;9.77;;;11.20;99.90;;;;;;5011871;28;19921;-70
2022/06/22 00:29:22;;;;;;;21.25;10.73;;;11.10;99.90;;;;;;5043486;28;20042;-70
2022/06/22 00:32:01;;;;;;;20.60;11.38;;;11.10;99.90;;;;;;5010735;28;20054;-69
2022/06/22 00:34:31;;;;;;;18.50;11.73;;;11.10;99.90;;;;;;5009749;28;20095;-71
2022/06/22 00:37:02;;;;;;;16.73;10.95;;;11.00;99.90;;;;;;5011033;28;20091;-70
2022/06/22 00:39:38;;;;;;;16.95;11.10;;;11.00;99.90;;;;;;5011470;28;20050;-70
2022/06/22 00:42:21;;;;;;;16.75;9.93;;;11.00;99.90;;;;;;5009863;28;20064;-70
2022/06/22 00:44:50;;;;;;;14.93;10.80;;;11.00;99.90;;;;;;5010469;28;20106;-69
2022/06/22 00:47:24;;;;;;;16.00;10.75;;;11.00;99.90;;;;;;5010164;28;20046;-70
2022/06/22 00:49:54;;;;;;;21.88;11.63;;;11.00;99.90;;;;;;5010462;28;20053;-69
2022/06/22 00:52:28;;;;;;;14.05;9.45;;;10.90;99.90;;;;;;5011233;28;20053;-70
2022/06/22 00:54:55;;;;;;;14.55;10.43;;;10.90;99.90;;;;;;5010671;28;20058;-69
2022/06/22 00:57:27;;;;;;;17.92;11.00;;;10.80;99.90;;;;;;5010004;28;20057;-69
2022/06/22 01:00:02;;;;;;;16.33;11.05;;;10.80;99.90;;;;;;5011073;28;20057;-69
2022/06/22 01:02:38;;;;;;;14.57;10.70;;;10.80;99.90;;;;;;5009594;28;20551;-69
2022/06/22 01:05:16;;;;;;;16.92;11.57;;;10.80;99.90;;;;;;5010832;28;20060;-70
2022/06/22 01:07:51;;;;;;;15.38;10.85;;;10.80;99.90;;;;;;5010078;28;20493;-70
2022/06/22 01:10:24;;;;;;;17.15;10.75;;;10.70;99.90;;;;;;5009390;28;20053;-70
2022/06/22 01:12:57;;;;;;;15.73;10.95;;;10.70;99.90;;;;;;5011388;28;20057;-70
2022/06/22 01:15:30;;;;;;;19.05;12.05;;;10.60;99.90;;;;;;5010066;28;20110;-70
2022/06/22 01:18:05;;;;;;;16.27;11.30;;;10.60;99.90;;;;;;5013347;28;20041;-70
2022/06/22 01:20:41;;;;;;;16.27;11.90;;;10.60;99.90;;;;;;5019915;28;20520;-71
2022/06/22 01:23:41;;;;;;;18.13;11.10;;;10.60;99.90;;;;;;5018732;28;20378;-71
2022/06/22 01:26:38;;;;;;;17.52;11.80;;;10.50;99.90;;;;;;5017448;28;20095;-70
2022/06/22 01:29:14;;;;;;;15.88;10.85;;;10.50;99.90;;;;;;5019887;28;20061;-72
2022/06/22 01:31:45;;;;;;;16.38;11.50;;;10.50;99.90;;;;;;5009417;28;20496;-70
2022/06/22 01:34:16;;;;;;;18.42;12.38;;;10.40;99.90;;;;;;5009901;28;20062;-71
2022/06/22 01:36:44;;;;;;;20.30;12.00;;;10.40;99.90;;;;;;5022679;28;20046;-70
2022/06/22 01:39:13;;;;;;;21.90;13.55;;;10.40;99.90;;;;;;4990533;28;20383;-70
2022/06/22 01:41:46;;;;;;;22.48;14.77;;;10.40;99.90;;;;;;4989916;28;20050;-69
2022/06/22 01:44:21;;;;;;;21.30;14.20;;;10.40;99.90;;;;;;4989005;28;20073;-70
2022/06/22 01:47:16;;;;;;;20.00;13.57;;;10.40;99.90;;;;;;5005024;28;20047;-70
2022/06/22 01:49:51;;;;;;;22.60;13.45;;;10.40;99.90;;;;;;5006965;28;20520;-70
2022/06/22 01:52:27;;;;;;;22.02;13.82;;;10.40;99.90;;;;;;5009734;28;20049;-70
2022/06/22 01:54:57;;;;;;;20.38;14.15;;;10.30;99.90;;;;;;5009794;28;20121;-70
2022/06/22 01:57:29;;;;;;;21.30;13.90;;;10.40;99.90;;;;;;5010436;28;20117;-70
2022/06/22 02:00:05;;;;;;;21.25;14.13;;;10.30;99.90;;;;;;5009946;28;20054;-70
2022/06/22 02:02:39;;;;;;;19.50;12.15;;;10.30;99.90;;;;;;5010328;28;20049;-70
2022/06/22 02:05:16;;;;;;;14.10;10.20;;;10.30;99.90;;;;;;5008775;28;20049;-71
2022/06/22 02:07:50;;;;;;;13.10;9.65;;;10.30;99.90;;;;;;5008788;28;20115;-71
2022/06/22 02:10:27;;;;;;;14.90;8.82;;;10.20;99.90;;;;;;5009352;28;20554;-70
2022/06/22 02:13:08;;;;;;;13.70;8.90;;;10.20;99.90;;;;;;5009602;28;20493;-72
2022/06/22 02:15:50;;;;;;;13.63;9.55;;;10.10;99.90;;;;;;5009414;28;20140;-70
2022/06/22 02:18:25;;;;;;;15.90;9.68;;;10.20;99.90;;;;;;4994392;28;20501;-70
2022/06/22 02:20:53;;;;;;;11.13;8.40;;;10.20;99.90;;;;;;5013036;28;20095;-70
2022/06/22 02:23:24;;;;;;;13.32;8.93;;;10.10;99.90;;;;;;5012604;28;20049;-69
2022/06/22 02:25:57;;;;;;;14.27;8.65;;;10.10;99.90;;;;;;5012745;28;20050;-70
2022/06/22 02:28:24;;;;;;;13.75;8.40;;;10.20;99.90;;;;;;5012750;28;20076;-70
2022/06/22 02:30:53;;;;;;;14.25;8.15;;;10.10;99.90;;;;;;5041260;28;20076;-70
2022/06/22 02:33:20;;;;;;;12.05;8.18;;;10.10;99.90;;;;;;5013302;28;20050;-70
2022/06/22 02:35:48;;;;;;;12.93;8.98;;;10.10;99.90;;;;;;5013334;28;20042;-70
2022/06/22 02:38:16;;;;;;;10.48;8.20;;;10.10;99.90;;;;;;5012340;28;20054;-71
2022/06/22 02:46:22;;;;;;;10.52;7.85;;;10.00;99.90;;;;;;5013238;28;20083;-71
2022/06/22 02:48:55;;;;;;;8.57;6.70;;;9.90;99.90;;;;;;5012754;28;20133;-70
2022/06/22 02:51:27;;;;;;;10.00;7.55;;;9.90;99.90;;;;;;5011834;28;20061;-70
2022/06/22 02:53:58;;;;;;;9.32;7.15;;;9.90;99.90;;;;;;5012901;28;20093;-70
2022/06/22 02:56:32;;;;;;;11.38;7.68;;;9.90;99.90;;;;;;5011187;28;20045;-70
2022/06/22 02:58:59;;;;;;;10.23;7.07;;;9.80;99.90;;;;;;5012990;28;20062;-70
2022/06/22 03:01:31;;;;;;;8.15;6.10;;;9.90;99.90;;;;;;5011442;28;20110;-70
2022/06/22 03:04:01;;;;;;;5.63;4.72;;;9.80;99.90;;;;;;5045073;28;20050;-71
2022/06/22 03:06:31;;;;;;;5.00;3.97;;;9.80;99.90;;;;;;5011975;28;20133;-70
2022/06/22 03:09:00;;;;;;;4.40;3.60;;;9.70;99.90;;;;;;5012511;28;20046;-70
2022/06/22 03:11:28;;;;;;;5.28;3.42;;;9.70;99.90;;;;;;5025404;28;20379;-70
2022/06/22 03:14:01;;;;;;;3.70;3.30;;;9.60;99.90;;;;;;5006359;28;20046;-71
2022/06/22 03:16:33;;;;;;;4.38;3.10;;;9.60;99.90;;;;;;5011735;28;20050;-71
2022/06/22 03:19:05;;;;;;;3.97;3.53;;;9.50;99.90;;;;;;5011918;28;20485;-70
2022/06/22 03:21:32;;;;;;;4.97;4.00;;;9.50;99.90;;;;;;5011810;28;20057;-69
2022/06/22 03:24:05;;;;;;;4.47;3.65;;;9.50;99.90;;;;;;5010857;28;20447;-70
2022/06/22 03:26:37;;;;;;;5.00;3.67;;;9.40;99.90;;;;;;5012818;28;20118;-71
2022/06/22 03:29:08;;;;;;;5.22;3.30;;;9.40;99.90;;;;;;5011089;28;20435;-70
2022/06/22 03:31:44;;;;;;;4.00;3.13;;;9.40;99.90;;;;;;5011779;28;20054;-70
2022/06/22 03:34:16;;;;;;;4.57;3.50;;;9.40;99.90;;;;;;5012953;28;20054;-71
2022/06/22 03:36:48;;;;;;;5.85;4.00;;;9.40;99.90;;;;;;5011967;28;20540;-70
2022/06/22 03:39:18;;;;;;;5.00;4.10;;;9.40;99.90;;;;;;5012333;28;20528;-71
2022/06/22 03:41:50;;;;;;;4.47;3.58;;;9.50;99.90;;;;;;5011461;28;20119;-71
2022/06/22 03:44:27;;;;;;;6.07;3.40;;;9.50;99.90;;;;;;4993586;28;20088;-71
2022/06/22 03:47:00;;;;;;;5.18;3.67;;;9.70;99.90;;;;;;4997765;28;20412;-71
2022/06/22 03:49:32;;;;;;;5.95;4.43;;;9.80;99.90;;;;;;5026773;28;20126;-70
2022/06/22 03:52:04;;;;;;;5.90;4.50;;;9.80;99.90;;;;;;5013105;28;20085;-72
2022/06/22 03:54:38;;;;;;;4.28;3.40;;;9.90;99.90;;;;;;5015773;28;20042;-71
2022/06/22 03:57:09;;;;;;;5.65;4.20;;;10.00;99.90;;;;;;5026327;28;20103;-72
2022/06/22 03:59:40;;;;;;;5.13;3.85;;;10.10;99.90;;;;;;5005958;28;20065;-71
2022/06/22 04:02:09;;;;;;;5.53;3.30;;;10.20;99.90;;;;;;5029656;28;20100;-71
2022/06/22 04:04:37;;;;;;;5.47;3.53;;;10.20;99.90;;;;;;5009376;28;20403;-71
2022/06/22 04:07:04;;;;;;;4.78;3.70;;;10.30;99.90;;;;;;5005173;28;20042;-71
2022/06/22 04:09:31;;;;;;;7.57;5.00;;;10.30;99.90;;;;;;5007186;28;20050;-71
2022/06/22 04:12:10;;;;;;;5.00;3.85;;;10.40;99.90;;;;;;5005413;28;20046;-71
2022/06/22 04:14:41;;;;;;;8.27;4.25;;;10.90;99.90;;;;;;5024689;28;20056;-71
2022/06/22 04:17:17;;;;;;;5.93;4.38;;;10.50;99.90;;;;;;5024546;28;20482;-70
2022/06/22 04:20:00;;;;;;;7.03;4.57;;;10.50;99.90;;;;;;5002620;28;20058;-71
2022/06/22 04:22:29;;;;;;;6.00;4.45;;;10.70;99.90;;;;;;5004897;28;20045;-71
2022/06/22 04:25:00;;;;;;;5.38;4.13;;;10.70;99.90;;;;;;5002570;28;20058;-71
2022/06/22 04:27:29;;;;;;;;;;;10.80;99.90;;;;;;5002538;28;20062;-71
2022/06/22 04:30:01;;;;;;;7.88;4.15;;;10.90;99.90;;;;;;5009342;28;19955;-71
2022/06/22 04:32:34;;;;;;;7.28;4.72;;;11.00;99.90;;;;;;5003501;28;20383;-71
2022/06/22 04:35:16;;;;;;;10.43;5.47;;;11.10;99.90;;;;;;5004975;28;20061;-71
2022/06/22 04:37:48;;;;;;;11.25;7.88;;;11.20;99.90;;;;;;5003692;28;20042;-71
2022/06/22 04:40:23;;;;;;;10.73;7.90;;;11.20;99.90;;;;;;5003980;28;20099;-70
2022/06/22 04:42:56;;;;;;;11.50;7.88;;;11.30;99.90;;;;;;5001863;28;20567;-71
2022/06/22 04:45:30;;;;;;;10.57;8.07;;;11.30;99.90;;;;;;5002475;28;20145;-70
2022/06/22 04:48:03;;;;;;;12.02;8.60;;;11.40;99.90;;;;;;5006688;28;20058;-71
2022/06/22 04:50:31;;;;;;;13.85;9.20;;;11.40;99.90;;;;;;5003833;28;20050;-70
2022/06/22 04:53:02;;;;;;;12.75;8.65;;;11.50;99.90;;;;;;5001492;28;20052;-69
2022/06/22 04:55:30;;;;;;;;;;;11.60;99.90;;;;;;5000930;28;20046;-70
2022/06/22 04:58:04;;;;;;;16.52;9.60;;;11.70;99.90;;;;;;5003796;28;19929;-69
2022/06/22 05:00:34;;;;;;;12.45;8.48;;;11.80;99.90;;;;;;5005188;28;20490;-70
2022/06/22 05:03:06;;;;;;;14.65;9.38;;;12.00;99.90;;;;;;5003951;28;20099;-70
2022/06/22 05:05:35;;;;;;;16.00;8.93;;;12.20;99.90;;;;;;5003875;28;20046;-71
2022/06/22 05:08:05;;;;;;;17.95;10.90;;;12.50;99.90;;;;;;5002769;28;20099;-71
2022/06/22 05:10:41;;;;;;;18.92;12.18;;;12.70;99.90;;;;;;5002453;28;20452;-71
2022/06/22 05:13:15;;;;;;;18.05;11.93;;;12.90;99.90;;;;;;5004006;28;20106;-70
2022/06/22 05:15:45;;;;;;;16.67;10.75;;;13.10;99.90;;;;;;5002907;28;20140;-69
2022/06/22 05:18:19;;;;;;;17.05;11.50;;;13.30;99.90;;;;;;4999044;28;20046;-70
2022/06/22 05:20:51;;;;;;;18.23;11.95;;;13.50;99.90;;;;;;5002473;28;20065;-70
2022/06/22 05:23:19;;;;;;;17.98;12.02;;;13.70;99.90;;;;;;5002068;28;20054;-70
2022/06/22 05:25:48;;;;;;;18.75;11.20;;;13.90;99.90;;;;;;5001981;28;20106;-71
2022/06/22 05:28:23;;;;;;;15.90;9.32;;;14.10;99.90;;;;;;5023132;28;20520;-71
2022/06/22 05:30:54;;;;;;;15.75;9.48;;;14.30;99.90;;;;;;5004002;28;20046;-71
2022/06/22 05:33:26;;;;;;;16.17;10.48;;;14.50;99.90;;;;;;5007006;28;20443;-70
2022/06/22 05:35:59;;;;;;;17.85;10.35;;;14.70;99.90;;;;;;5003842;28;20057;-71
2022/06/22 05:38:27;;;;;;;14.85;10.13;;;14.90;99.90;;;;;;5002325;28;20099;-70
2022/06/22 05:40:54;;;;;;;12.23;9.95;;;15.20;99.90;;;;;;5000715;28;20056;-71
2022/06/22 05:43:23;;;;;;;18.98;10.07;;;15.30;99.90;;;;;;5024816;28;20107;-70
2022/06/22 05:45:55;;;;;;;12.90;9.43;;;15.60;99.90;;;;;;5003121;28;20053;-70
2022/06/22 05:48:26;;;;;;;12.20;8.82;;;15.70;99.90;;;;;;5003646;28;20077;-70
2022/06/22 05:50:57;;;;;;;14.43;9.13;;;16.00;99.90;;;;;;4999351;28;20058;-70
2022/06/22 05:53:28;;;;;;;20.23;10.13;;;16.20;99.90;;;;;;5025425;28;20490;-70
2022/06/22 05:56:06;;;;;;;11.25;9.75;;;16.50;99.90;;;;;;5003724;28;20069;-70
2022/06/22 05:58:40;;;;;;;15.63;9.40;;;16.60;99.90;;;;;;5003399;28;20042;-71
2022/06/22 06:01:15;;;;;;;14.20;8.52;;;16.70;99.90;;;;;;5003614;28;20054;-72
2022/06/22 06:03:50;;;;;;;15.80;8.70;;;16.80;99.90;;;;;;5001664;28;20513;-71
2022/06/22 06:06:22;;;;;;;12.95;7.90;;;17.00;99.90;;;;;;5000085;28;20099;-71
2022/06/22 06:08:53;;;;;;;10.98;7.57;;;17.10;99.90;;;;;;5000804;28;20073;-70
2022/06/22 06:11:24;;;;;;;13.43;8.15;;;17.30;99.90;;;;;;5001861;28;20054;-71
2022/06/22 06:13:58;;;;;;;12.80;7.85;;;17.40;99.90;;;;;;5006689;28;20050;-72
2022/06/22 06:16:27;;;;;;;12.25;7.35;;;17.50;99.90;;;;;;5002062;28;20477;-72
2022/06/22 06:19:00;;;;;;;11.52;7.28;;;17.60;99.90;;;;;;5006765;28;20058;-72
2022/06/22 06:21:33;;;;;;;12.13;6.90;;;17.80;99.90;;;;;;5033006;28;20052;-71
2022/06/22 06:24:03;;;;;;;18.50;7.18;;;18.00;99.90;;;;;;5010389;28;20060;-71
2022/06/22 06:29:32;;;;;;;8.38;6.47;;;18.40;99.90;;;;;;5007040;28;20077;-71
2022/06/22 06:32:12;;;;;;;10.25;5.80;;;18.60;99.90;;;;;;5027865;28;20058;-71
2022/06/22 06:34:45;;;;;;;11.50;5.50;;;18.70;99.90;;;;;;5001275;28;20046;-71
2022/06/22 06:37:16;;;;;;;9.70;5.75;;;18.90;99.90;;;;;;5002922;28;20494;-70
2022/06/22 06:39:46;;;;;;;12.30;6.35;;;19.10;99.90;;;;;;5002628;28;20488;-71
2022/06/22 06:42:30;;;;;;;7.95;5.35;;;19.30;99.90;;;;;;5007839;28;20099;-71
2022/06/22 06:45:00;;;;;;;9.57;4.75;;;19.30;99.90;;;;;;5026216;28;20058;-70
2022/06/22 06:47:32;;;;;;;10.18;4.85;;;19.40;99.90;;;;;;5004598;28;20056;-71
2022/06/22 06:50:07;;;;;;;17.77;7.80;;;19.60;99.90;;;;;;5003871;28;20121;-71
2022/06/22 06:52:44;;;;;;;6.70;4.53;;;19.90;99.90;;;;;;5026235;28;20133;-71
2022/06/22 06:55:22;;;;;;;11.10;4.82;;;19.90;99.90;;;;;;5001720;28;20058;-70
2022/06/22 06:57:57;;;;;;;9.75;4.75;;;20.30;99.90;;;;;;4998787;28;20038;-71
2022/06/22 07:00:25;;;;;;;7.47;3.95;;;20.50;99.90;;;;;;5004859;28;20114;-71
2022/06/22 07:02:52;;;;;;;10.60;3.95;;;20.70;99.90;;;;;;5003446;28;20046;-72
2022/06/22 07:05:23;;;;;;;7.43;3.42;;;20.90;99.90;;;;;;5007189;28;20061;-70
2022/06/22 07:07:53;;;;;;;8.38;4.93;;;21.40;99.90;;;;;;5004164;28;20637;-71
2022/06/22 07:10:25;;;;;;;8.32;4.00;;;21.70;99.90;;;;;;5005128;28;20078;-71
2022/06/22 07:12:56;;;;;;;5.45;3.08;;;21.70;99.90;;;;;;5008041;28;20052;-72
2022/06/22 07:15:26;;;;;;;7.47;3.15;;;21.90;99.90;;;;;;5037458;28;20061;-71
2022/06/22 07:17:55;;;;;;;8.77;3.72;;;22.30;99.90;;;;;;5004922;28;20050;-71
2022/06/22 07:20:29;;;;;;;9.33;3.47;;;22.50;99.90;;;;;;5006293;28;20054;-70
2022/06/22 07:23:01;;;;;;;8.60;3.95;;;22.80;99.50;;;;;;5007460;28;20316;-71
2022/06/22 07:25:33;;;;;;;9.95;3.28;;;22.90;99.20;;;;;;5004342;28;20404;-71
2022/06/22 07:28:05;;;;;;;6.95;2.78;;;23.20;97.70;;;;;;5003263;28;20042;-71
2022/06/22 07:30:36;;;;;;;7.90;3.40;;;23.40;97.10;;;;;;5002951;28;20111;-71
2022/06/22 07:33:10;;;;;;;5.32;2.80;;;23.50;95.10;;;;;;5005154;28;20110;-71
2022/06/22 07:35:43;;;;;;;6.65;3.03;;;23.60;94.90;;;;;;5005574;28;20053;-72
2022/06/22 07:38:22;;;;;;;8.00;3.17;;;23.70;94.70;;;;;;5004462;28;20041;-72
2022/06/22 07:43:35;;;;;;;7.75;3.20;;;24.10;93.80;;;;;;5005618;28;20455;-72
2022/06/22 07:46:02;;;;;;;7.13;3.17;;;24.20;93.40;;;;;;5027903;28;20054;-71
2022/06/22 07:48:32;;;;;;;7.47;3.00;;;24.50;93.10;;;;;;5031915;28;20211;-72
2022/06/22 07:51:06;;;;;;;5.05;2.80;;;24.70;92.10;;;;;;5039251;27;20094;-72
2022/06/22 07:53:39;;;;;;;6.20;2.75;;;24.80;90.80;;;;;;5008176;28;20832;-71
2022/06/22 07:56:14;;;;;;;5.78;3.00;;;24.90;90.60;;;;;;5010005;28;20042;-72
2022/06/22 07:58:46;;;;;;;8.85;3.40;;;25.20;87.60;;;;;;5027608;28;20104;-72
2022/06/22 08:01:17;;;;;;;6.13;2.97;;;25.40;90.20;;;;;;5005373;28;20063;-71
2022/06/22 08:03:49;;;;;;;6.10;3.00;;;25.60;89.10;;;;;;5003757;28;20058;-71
2022/06/22 08:06:21;;;;;;;5.55;2.50;;;25.90;86.20;;;;;;5002695;28;20458;-71
2022/06/22 08:08:53;;;;;;;8.10;3.50;;;26.00;84.80;;;;;;5002994;28;20050;-72
2022/06/22 08:11:26;;;;;;;8.13;3.45;;;26.10;86.70;;;;;;4997221;28;20573;-71
2022/06/22 08:13:57;;;;;;;7.07;2.70;;;26.40;86.50;;;;;;5000544;28;20047;-72
2022/06/22 08:16:28;;;;;;;5.40;3.45;;;26.50;85.10;;;;;;5007233;28;20049;-70
2022/06/22 08:18:56;;;;;;;7.85;3.60;;;26.30;83.60;;;;;;4992224;28;20046;-72
2022/06/22 08:21:25;;;;;;;6.63;3.15;;;26.40;85.10;;;;;;5000469;28;20060;-72
2022/06/22 08:23:54;;;;;;;4.80;2.75;;;26.80;83.80;;;;;;5032522;28;20041;-72
2022/06/22 08:26:25;;;;;;;6.35;2.90;;;26.90;84.00;;;;;;5010998;28;20050;-72
2022/06/22 08:28:53;;;;;;;6.22;2.90;;;27.00;81.20;;;;;;4998477;28;20039;-71
2022/06/22 08:31:20;;;;;;;9.65;3.40;;;27.10;81.50;;;;;;4999444;28;20053;-72
2022/06/22 08:33:52;;;;;;;8.13;3.55;;;27.20;82.10;;;;;;5002526;28;20042;-72
2022/06/22 08:36:24;;;;;;;6.50;3.28;;;27.20;81.20;;;;;;5004157;28;20061;-72
2022/06/22 08:39:00;;;;;;;5.75;3.00;;;27.50;79.10;;;;;;5008246;28;20050;-71
2022/06/22 08:41:42;;;;;;;7.85;3.53;;;27.40;79.40;;;;;;5003844;28;20541;-71
2022/06/22 08:44:20;;;;;;;6.10;2.90;;;27.80;77.20;;;;;;5008107;28;20057;-72
2022/06/22 08:47:05;;;;;;;5.38;3.03;;;27.90;77.90;;;;;;5011379;28;20444;-71
2022/06/22 08:49:59;;;;;;;7.07;3.15;;;27.70;77.10;;;;;;5013754;28;20046;-72
2022/06/22 08:52:39;;;;;;;7.07;3.40;;;27.80;76.30;;;;;;5004327;28;20070;-71
2022/06/22 08:55:24;;;;;;;6.40;2.38;;;27.90;75.30;;;;;;5002567;28;20042;-71
2022/06/22 08:58:04;;;;;;;7.20;3.22;;;28.10;74.50;;;;;;5001359;28;20107;-72
2022/06/22 09:00:37;;;;;;;8.77;2.97;;;28.10;75.40;;;;;;5011036;28;20798;-72
2022/06/22 09:03:43;;;;;;;9.25;3.95;;;28.40;75.40;;;;;;5005278;28;20452;-71
2022/06/22 09:06:26;;;;;;;7.38;3.58;;;28.50;74.10;;;;;;5015467;28;20470;-72
2022/06/22 09:09:38;;;;;;;6.25;3.35;;;28.20;73.20;;;;;;5002017;28;20103;-72
2022/06/22 09:12:21;;;;;;;7.32;2.90;;;28.10;73.90;;;;;;4998533;28;20050;-73
2022/06/22 09:15:12;;;;;;;6.93;3.38;;;28.20;74.40;;;;;;5007883;28;20574;-73
2022/06/22 09:17:57;;;;;;;4.35;2.47;;;28.60;73.70;;;;;;5003626;28;20054;-71
2022/06/22 09:20:55;;;;;;;4.38;2.55;;;28.70;73.70;;;;;;5003549;28;20095;-72
2022/06/22 09:23:31;;;;;;;8.65;2.90;;;28.90;71.90;;;;;;5022636;28;20058;-72
2022/06/22 09:26:09;;;;;;;18.75;3.53;;;29.10;71.60;;;;;;5004314;28;20102;-72
2022/06/22 09:28:47;;;;;;;6.80;2.65;;;29.40;69.50;;;;;;5002977;28;20123;-71
2022/06/22 09:32:01;;;;;;;9.60;3.20;;;29.60;71.70;;;;;;4981413;28;20103;-72
2022/06/22 09:34:51;;;;;;;6.82;2.80;;;29.80;68.00;;;;;;5000417;28;20088;-71
2022/06/22 09:37:35;;;;;;;6.90;2.72;;;29.10;67.60;;;;;;5021421;28;20575;-69
2022/06/22 09:40:31;;;;;;;5.35;3.13;;;29.30;68.90;;;;;;5000645;28;20375;-71
2022/06/22 09:43:36;;;;;;;7.47;2.95;;;28.90;68.00;;;;;;5003672;28;20050;-70
2022/06/22 09:46:27;;;;;;;5.03;2.50;;;29.20;69.70;;;;;;5003549;28;20050;-71
2022/06/22 09:49:14;;;;;;;3.88;2.38;;;29.40;68.40;;;;;;5003830;28;20066;-72
2022/06/22 09:52:18;;;;;;;6.70;2.63;;;29.40;67.90;;;;;;5004020;28;20450;-72
2022/06/22 09:58:08;;;;;;;7.80;2.72;;;29.40;67.80;;;;;;5000092;28;20049;-72
2022/06/22 10:00:44;;;;;;;6.88;2.78;;;29.70;69.00;;;;;;5031385;27;20490;-72
2022/06/22 10:03:49;;;;;;;7.30;2.85;;;30.00;68.10;;;;;;5022354;28;20510;-73
2022/06/22 10:06:35;;;;;;;4.60;2.08;;;29.90;65.00;;;;;;5016521;28;20413;-73
2022/06/22 10:09:18;;;;;;;5.50;3.08;;;30.00;66.50;;;;;;5001635;28;20042;-71
2022/06/22 10:11:52;;;;;;;5.70;2.97;;;30.10;67.10;;;;;;5004874;28;20053;-72
2022/06/22 10:14:45;;;;;;;4.05;2.63;;;30.30;67.10;;;;;;4999075;28;20497;-72
2022/06/22 10:17:25;;;;;;;6.65;2.88;;;30.70;66.00;;;;;;5001083;28;20050;-73
2022/06/22 10:20:01;;;;;;;;;;;30.60;65.20;;;;;;5004092;28;20042;-72
2022/06/22 10:22:50;;;;;;;5.25;2.95;;;30.00;64.80;;;;;;4997372;28;19930;-72
2022/06/22 10:25:48;;;;;;;6.93;3.35;;;30.20;63.70;;;;;;4998714;28;20057;-72
2022/06/22 10:28:33;;;;;;;7.95;3.05;;;30.50;65.40;;;;;;5001337;28;20042;-72
2022/06/22 10:31:08;;;;;;;5.68;2.72;;;30.90;65.70;;;;;;5001585;28;20054;-72
2022/06/22 10:34:02;;;;;;;5.55;3.03;;;30.80;66.40;;;;;;4985140;28;20398;-71
2022/06/22 10:37:07;;;;;;;6.47;3.40;;;31.00;67.60;;;;;;5009440;28;20042;-72
2022/06/22 10:39:53;;;;;;;10.45;3.70;;;31.10;67.50;;;;;;5000549;28;20095;-73
2022/06/22 10:45:40;;;;;;;7.60;3.08;;;31.10;65.60;;;;;;5003511;28;20068;-73
2022/06/22 10:48:48;;;;;;;7.60;3.58;;;31.10;65.10;;;;;;5009351;28;20050;-72
2022/06/22 10:51:25;;;;;;;7.15;2.97;;;31.20;66.50;;;;;;5006542;28;20050;-72
2022/06/22 10:54:20;;;;;;;7.80;3.60;;;31.20;67.00;;;;;;5008859;28;20156;-72
2022/06/22 10:57:12;;;;;;;6.10;3.20;;;31.00;64.70;;;;;;5005691;28;20489;-72
2022/06/22 11:00:09;;;;;;;12.82;3.40;;;31.30;66.60;;;;;;5026360;28;20046;-72
2022/06/22 11:03:20;;;;;;;9.18;3.55;;;31.30;65.00;;;;;;5004236;28;20062;-73
2022/06/22 11:06:02;;;;;;;6.97;3.55;;;31.10;64.30;;;;;;5009979;28;20084;-73
2022/06/22 11:08:44;;;;;;;7.65;3.45;;;31.40;63.10;;;;;;5034921;28;20038;-73
2022/06/22 11:11:24;;;;;;;5.93;3.03;;;31.70;64.90;;;;;;5010332;28;20049;-73
2022/06/22 11:14:19;;;;;;;7.03;3.40;;;31.90;66.10;;;;;;5003965;28;20054;-73
2022/06/22 11:16:57;;;;;;;7.28;3.53;;;31.90;64.50;;;;;;5005538;28;20056;-73
2022/06/22 11:19:48;;;;;;;5.22;3.42;;;31.70;63.90;;;;;;5002107;28;20042;-73
2022/06/22 11:22:27;;;;;;;8.00;3.55;;;31.10;63.80;;;;;;5025483;28;20050;-74
2022/06/22 11:31:45;;;;;;;5.95;3.30;;;30.80;64.20;;;;;;5002610;28;20111;-73
2022/06/22 11:34:40;;;;;;;7.00;3.35;;;31.10;65.00;;;;;;5002430;28;20054;-72
2022/06/22 11:37:16;;;;;;;7.03;3.13;;;31.70;64.10;;;;;;5003587;28;20124;-72
2022/06/22 11:40:00;;;;;;;7.13;3.10;;;31.80;64.30;;;;;;5003890;28;20432;-71
2022/06/22 11:42:40;;;;;;;7.03;3.05;;;31.80;64.20;;;;;;5004031;28;20047;-72
2022/06/22 11:45:51;;;;;;;6.90;3.70;;;32.00;63.90;;;;;;5025476;28;20058;-72
2022/06/22 11:48:46;;;;;;;9.27;3.42;;;32.20;63.40;;;;;;5004428;28;20398;-72
2022/06/22 11:51:27;;;;;;;5.20;3.00;;;31.80;62.30;;;;;;5009548;28;20053;-72
2022/06/22 11:54:13;;;;;;;6.22;3.28;;;31.90;63.70;;;;;;5004164;28;20050;-71
2022/06/22 11:56:56;;;;;;;7.03;3.05;;;31.70;63.70;;;;;;5004676;28;20050;-71
2022/06/22 11:59:45;;;;;;;6.18;2.95;;;31.80;63.40;;;;;;5007699;28;20481;-72
2022/06/22 12:02:40;;;;;;;9.02;3.30;;;31.90;62.70;;;;;;5002590;28;20045;-72
2022/06/22 12:05:22;;;;;;;5.72;2.80;;;32.00;62.10;;;;;;5002556;28;20512;-72
2022/06/22 12:08:18;;;;;;;8.27;3.67;;;32.10;63.90;;;;;;5002454;28;20430;-72
2022/06/22 12:10:50;;;;;;;5.18;2.60;;;32.50;62.80;;;;;;5002227;28;20046;-73
2022/06/22 12:13:36;;;;;;;9.43;2.80;;;32.80;62.90;;;;;;5002601;28;20054;-72
2022/06/22 12:16:16;;;;;;;8.32;3.30;;;33.00;62.80;;;;;;5004946;28;20924;-73
2022/06/22 12:19:04;;;;;;;7.50;2.80;;;33.20;63.30;;;;;;5007625;28;20125;-72
2022/06/22 12:21:43;;;;;;;7.72;3.70;;;33.10;61.40;;;;;;5001772;28;20050;-72
2022/06/22 12:24:18;;;;;;;8.68;3.35;;;32.90;61.50;;;;;;5002584;28;20066;-72
2022/06/22 12:26:53;;;;;;;8.93;3.60;;;32.30;62.00;;;;;;5031687;28;20493;-73
2022/06/22 12:29:34;;;;;;;10.07;3.05;;;31.80;62.60;;;;;;5004280;28;20141;-74
2022/06/22 12:32:13;;;;;;;5.85;2.97;;;32.00;63.70;;;;;;5026475;28;20051;-72
2022/06/22 12:34:48;;;;;;;8.23;3.30;;;31.80;63.60;;;;;;5029070;28;20051;-72
2022/06/22 12:37:19;;;;;;;6.75;3.00;;;31.60;63.00;;;;;;5002773;28;20321;-72
2022/06/22 12:39:51;;;;;;;5.70;3.38;;;32.00;63.40;;;;;;5003085;28;20052;-71
2022/06/22 12:42:46;;;;;;;7.88;2.78;;;32.20;62.50;;;;;;5009388;28;20049;-73
2022/06/22 12:45:42;;;;;;;6.65;3.30;;;32.20;62.40;;;;;;5005498;28;20046;-72
2022/06/22 12:48:32;;;;;;;6.18;3.58;;;32.10;61.60;;;;;;5003042;28;20053;-72
2022/06/22 12:51:17;;;;;;;5.88;2.80;;;32.40;61.60;;;;;;5007189;28;20053;-72
2022/06/22 12:53:51;;;;;;;5.60;2.90;;;32.90;62.10;;;;;;5003486;28;20046;-72
2022/06/22 12:56:23;;;;;;;7.47;2.90;;;32.80;62.00;;;;;;5007566;28;20046;-72
2022/06/22 12:58:54;;;;;;;5.50;2.63;;;33.20;61.70;;;;;;5005855;28;20049;-72
2022/06/22 13:01:21;;;;;;;6.68;2.90;;;33.60;61.10;;;;;;5004083;28;20058;-73
2022/06/22 13:03:54;;;;;;;7.07;3.45;;;33.60;61.40;;;;;;5001333;28;20489;-71
2022/06/22 13:06:23;;;;;;;5.28;2.83;;;33.50;60.30;;;;;;5003201;28;20089;-72
2022/06/22 13:08:51;;;;;;;8.10;3.00;;;33.50;60.70;;;;;;5002355;28;20128;-73
2022/06/22 13:11:22;;;;;;;6.07;2.63;;;33.90;60.90;;;;;;5003271;28;20077;-72
2022/06/22 13:13:58;;;;;;;5.78;2.60;;;33.90;59.90;;;;;;5024009;28;20681;-72
2022/06/22 13:16:30;;;;;;;4.97;2.97;;;33.50;60.10;;;;;;5002416;28;20437;-72
2022/06/22 13:19:07;;;;;;;6.22;3.33;;;33.50;60.90;;;;;;5002084;28;20049;-73
2022/06/22 13:21:42;;;;;;;5.35;2.67;;;33.60;60.40;;;;;;5000550;28;20085;-72
2022/06/22 13:24:22;;;;;;;6.25;2.67;;;33.40;60.60;;;;;;5002541;28;20046;-72
2022/06/22 13:26:58;;;;;;;6.22;3.00;;;33.70;60.50;;;;;;5001277;28;20057;-72
2022/06/22 13:29:33;;;;;;;8.20;4.05;;;33.60;60.80;;;;;;5003251;28;20042;-72
2022/06/22 13:32:04;;;;;;;6.22;3.50;;;33.40;61.30;;;;;;5014958;28;20046;-72
2022/06/22 13:34:41;;;;;;;7.40;3.63;;;33.20;61.90;;;;;;5004106;28;20145;-72
2022/06/22 13:37:20;;;;;;;6.53;3.47;;;33.10;62.50;;;;;;5026709;28;20057;-72
2022/06/22 13:40:02;;;;;;;8.85;3.92;;;32.60;63.10;;;;;;5002022;28;20125;-72
2022/06/22 13:42:54;;;;;;;8.25;3.53;;;32.70;63.50;;;;;;5023389;28;20050;-72
2022/06/22 13:45:40;;;;;;;8.98;4.28;;;33.00;63.20;;;;;;5001540;28;20068;-72
2022/06/22 13:48:18;;;;;;;10.98;4.80;;;32.70;64.10;;;;;;5001291;28;20046;-72
2022/06/22 13:51:14;;;;;;;10.23;3.90;;;32.40;64.50;;;;;;5000588;28;20131;-72
2022/06/22 13:54:12;;;;;;;6.43;4.45;;;32.00;64.80;;;;;;5000940;28;20065;-72
2022/06/22 13:56:57;;;;;;;7.93;3.97;;;31.60;65.40;;;;;;5003641;28;20442;-72